Time;durP1;ratioP1;P1;durP2;ratioP2;P2;SDS_P1;SDS_P2;PMS_P1;PMS_P2;Temp;Humidity;BMP_temperature;BMP_pressure;BME280_temperature;BME280_humidity;BME280_pressure;Samples;Min_cycle;Max_cycle;Signal;HPM_P1;HPM_P2
2022/10/19 00:01:48;;;;;;;35.47;13.52;;;;;;;5.74;100.00;102796.78;5096444;28;20020;-47
2022/10/19 00:04:13;;;;;;;15.32;8.05;;;;;;;5.64;100.00;102796.81;5095736;28;20051;-50
2022/10/19 00:06:38;;;;;;;24.67;11.15;;;;;;;5.68;100.00;102792.84;5096221;28;20028;-48
2022/10/19 00:09:12;;;;;;;28.13;13.25;;;;;;;5.69;100.00;102787.84;5096434;28;20123;-46
2022/10/19 00:11:41;;;;;;;40.55;17.48;;;;;;;5.82;100.00;102789.72;5095532;28;20028;-46
2022/10/19 00:14:10;;;;;;;38.60;17.25;;;;;;;5.81;100.00;102790.53;5096416;28;20390;-48
2022/10/19 00:16:36;;;;;;;40.55;17.35;;;;;;;5.83;100.00;102793.19;5095946;28;20443;-48
2022/10/19 00:19:07;;;;;;;43.13;18.10;;;;;;;5.82;100.00;102789.72;5095399;28;20103;-48
2022/10/19 00:21:32;;;;;;;45.63;17.70;;;;;;;5.81;100.00;102790.53;5096017;28;20024;-48
2022/10/19 00:23:57;;;;;;;43.03;18.20;;;;;;;5.81;100.00;102787.06;5096010;28;20038;-48
2022/10/19 00:26:23;;;;;;;47.40;18.98;;;;;;;5.87;100.00;102791.00;5095411;28;20119;-48
2022/10/19 00:28:48;;;;;;;42.47;18.70;;;;;;;5.79;100.00;102789.50;5095680;28;20061;-48
2022/10/19 00:31:16;;;;;;;55.22;19.45;;;;;;;5.86;100.00;102781.56;5096066;28;20028;-48
2022/10/19 00:33:45;;;;;;;45.90;19.55;;;;;;;5.97;100.00;102789.19;5094928;28;20034;-48
2022/10/19 00:36:22;;;;;;;48.03;17.95;;;;;;;5.88;100.00;102779.09;5095837;28;20024;-49
2022/10/19 00:38:48;;;;;;;43.97;17.42;;;;;;;5.66;100.00;102774.81;5095784;28;20077;-47
2022/10/19 00:41:14;;;;;;;38.17;16.40;;;;;;;5.63;100.00;102774.59;5094635;28;20020;-47
2022/10/19 00:43:52;;;;;;;38.97;16.98;;;;;;;5.71;100.00;102778.63;5095467;28;20133;-49
2022/10/19 00:46:17;;;;;;;33.83;15.23;;;;;;;5.66;100.00;102772.25;5095493;28;20020;-45
2022/10/19 00:48:42;;;;;;;40.00;15.38;;;;;;;5.54;100.00;102784.03;5095034;28;20020;-47
2022/10/19 00:51:08;;;;;;;39.70;13.40;;;;;;;5.51;100.00;102786.38;5095579;28;20062;-49
2022/10/19 00:53:35;;;;;;;32.55;14.30;;;;;;;5.48;100.00;102779.34;5094649;28;20032;-47
2022/10/19 00:56:04;;;;;;;39.45;15.60;;;;;;;5.48;100.00;102787.00;5095437;28;20468;-48
2022/10/19 00:58:30;;;;;;;38.13;15.00;;;;;;;5.51;100.00;102781.25;5095482;28;20024;-48
2022/10/19 01:00:57;;;;;;;35.22;15.18;;;;;;;5.40;100.00;102782.94;5093421;28;20030;-46
2022/10/19 01:03:23;;;;;;;34.25;15.50;;;;;;;5.44;100.00;102779.88;5095291;28;20032;-49
2022/10/19 01:05:48;;;;;;;41.70;16.83;;;;;;;5.57;100.00;102791.97;5095258;28;20028;-49
2022/10/19 01:08:14;;;;;;;43.63;19.05;;;;;;;5.55;100.00;102784.19;5094686;28;20387;-46
2022/10/19 01:10:51;;;;;;;41.17;19.08;;;;;;;5.61;100.00;102783.78;5095129;28;20028;-47
2022/10/19 01:13:43;;;;;;;38.50;17.80;;;;;;;5.55;100.00;102788.41;5095193;28;20077;-48
2022/10/19 01:16:22;;;;;;;38.67;18.88;;;;;;;5.58;100.00;102788.66;5094160;28;20371;-49
2022/10/19 01:19:11;;;;;;;36.95;17.35;;;;;;;5.51;100.00;102782.13;5095003;28;20024;-47
2022/10/19 01:21:44;;;;;;;38.13;17.15;;;;;;;5.38;100.00;102775.13;5094069;28;20070;-49
2022/10/19 01:24:39;;;;;;;35.10;16.48;;;;;;;5.45;100.00;102776.53;5094833;28;20081;-48
2022/10/19 01:27:19;;;;;;;38.55;18.92;;;;;;;5.47;100.00;102782.66;5095073;28;20052;-48
2022/10/19 01:30:05;;;;;;;42.47;18.20;;;;;;;5.46;100.00;102774.88;5093753;28;20498;-47
2022/10/19 01:32:58;;;;;;;48.85;20.33;;;;;;;5.51;100.00;102776.13;5094518;28;20020;-45
2022/10/19 01:35:32;;;;;;;53.58;22.02;;;;;;;5.56;100.00;102780.84;5094716;28;20514;-48
2022/10/19 01:38:05;;;;;;;42.80;19.45;;;;;;;5.53;100.00;102780.59;5094595;28;20032;-49
2022/10/19 01:40:41;;;;;;;51.33;21.15;;;;;;;5.53;100.00;102779.72;5094439;28;20031;-46
2022/10/19 01:43:29;;;;;;;47.33;21.33;;;;;;;5.59;100.00;102776.00;5093526;28;20113;-47
2022/10/19 01:46:16;;;;;;;39.90;19.58;;;;;;;5.48;100.00;102771.66;5093676;28;20036;-48
2022/10/19 01:48:49;;;;;;;39.10;20.23;;;;;;;5.42;100.00;102773.72;5094259;28;20057;-48
2022/10/19 01:51:19;;;;;;;41.72;19.88;;;;;;;5.37;100.00;102767.34;5093652;28;20153;-47
2022/10/19 01:53:52;;;;;;;42.40;20.83;;;;;;;5.35;100.00;102769.78;5094547;28;20032;-49
2022/10/19 01:56:22;;;;;;;44.45;20.83;;;;;;;5.35;100.00;102771.44;5094434;28;20069;-48
2022/10/19 01:58:50;;;;;;;52.92;20.60;;;;;;;5.37;100.00;102767.34;5093340;28;20028;-49
2022/10/19 02:01:19;;;;;;;38.08;21.92;;;;;;;5.39;100.00;102768.38;5094113;28;20426;-48
2022/10/19 02:03:45;;;;;;;46.22;21.33;;;;;;;5.39;100.00;102763.25;5093010;28;20479;-49
2022/10/19 02:06:13;;;;;;;48.00;23.13;;;;;;;5.48;100.00;102761.44;5094001;28;20117;-49
2022/10/19 02:08:43;;;;;;;49.00;21.48;;;;;;;5.34;100.00;102751.75;5093851;28;20482;-44
2022/10/19 02:11:08;;;;;;;49.92;21.25;;;;;;;5.31;100.00;102746.38;5093214;28;20031;-48
2022/10/19 02:13:36;;;;;;;40.08;20.67;;;;;;;5.35;100.00;102745.88;5093777;28;20028;-47
2022/10/19 02:16:06;;;;;;;39.38;20.00;;;;;;;5.24;100.00;102740.78;5094002;28;20024;-49
2022/10/19 02:18:39;;;;;;;49.75;20.45;;;;;;;5.27;100.00;102746.13;5092729;28;20028;-48
2022/10/19 02:21:06;;;;;;;50.50;23.13;;;;;;;5.31;100.00;102741.25;5094031;28;20024;-48
2022/10/19 02:23:31;;;;;;;50.15;23.35;;;;;;;5.24;100.00;102730.56;5093666;28;20024;-46
2022/10/19 02:25:58;;;;;;;46.67;23.25;;;;;;;5.33;100.00;102729.50;5093143;28;20026;-47
2022/10/19 02:28:24;;;;;;;56.25;22.92;;;;;;;5.25;100.00;102724.69;5093777;28;20031;-48
2022/10/19 02:30:49;;;;;;;46.65;23.67;;;;;;;5.28;100.00;102719.81;5093376;28;20418;-48
2022/10/19 02:33:15;;;;;;;48.53;22.63;;;;;;;5.19;100.00;102720.69;5093068;28;20085;-48
2022/10/19 02:35:40;;;;;;;37.58;20.17;;;;;;;5.09;100.00;102713.97;5093448;28;20428;-47
2022/10/19 02:38:09;;;;;;;48.20;20.77;;;;;;;5.08;100.00;102707.06;5093688;28;20024;-46
2022/10/19 02:40:40;;;;;;;45.10;21.50;;;;;;;5.07;100.00;102715.50;5092288;28;20050;-49
2022/10/19 02:43:11;;;;;;;41.78;22.77;;;;;;;5.05;100.00;102712.81;5093279;28;20051;-48
2022/10/19 02:45:43;;;;;;;41.47;21.05;;;;;;;5.00;100.00;102703.00;5093168;28;20024;-46
2022/10/19 02:48:17;;;;;;;40.03;22.00;;;;;;;5.03;100.00;102708.34;5092761;28;20028;-48
2022/10/19 02:50:48;;;;;;;53.28;23.35;;;;;;;5.07;100.00;102712.94;5093326;28;20032;-48
2022/10/19 02:53:15;;;;;;;47.45;26.23;;;;;;;5.11;100.00;102713.31;5092864;28;20048;-47
2022/10/19 02:55:41;;;;;;;50.28;23.65;;;;;;;5.06;100.00;102703.47;5093093;28;20034;-47
2022/10/19 02:58:06;;;;;;;49.28;24.27;;;;;;;5.04;100.00;102712.69;5093240;28;20107;-48
2022/10/19 03:00:31;;;;;;;46.58;22.02;;;;;;;4.95;100.00;102716.25;5092361;28;20020;-49
2022/10/19 03:02:56;;;;;;;46.55;22.80;;;;;;;5.01;100.00;102714.97;5093416;28;20379;-48
2022/10/19 03:05:22;;;;;;;40.47;23.67;;;;;;;4.97;100.00;102710.38;5093190;28;20078;-45
2022/10/19 03:07:47;;;;;;;49.45;23.98;;;;;;;5.01;100.00;102709.88;5092033;28;20031;-46
2022/10/19 03:10:12;;;;;;;50.55;22.83;;;;;;;4.83;100.00;102706.69;5092991;28;20539;-49
2022/10/19 03:12:38;;;;;;;40.97;21.10;;;;;;;4.84;100.00;102703.38;5092709;28;20522;-49
2022/10/19 03:15:04;;;;;;;38.97;21.05;;;;;;;4.79;100.00;102703.00;5092252;28;20035;-49
2022/10/19 03:17:29;;;;;;;45.47;22.75;;;;;;;4.78;100.00;102711.44;5093256;28;20031;-49
2022/10/19 03:19:54;;;;;;;48.80;21.73;;;;;;;4.75;100.00;102700.94;5092820;28;20478;-47
2022/10/19 03:22:19;;;;;;;47.10;22.20;;;;;;;4.72;100.00;102704.13;5092206;28;20451;-48
2022/10/19 03:24:45;;;;;;;39.97;22.55;;;;;;;4.73;100.00;102708.47;5096244;28;20166;-49
2022/10/19 03:27:10;;;;;;;38.33;21.60;;;;;;;4.66;100.00;102706.19;5097142;28;20407;-49
2022/10/19 03:29:35;;;;;;;43.45;22.55;;;;;;;4.70;100.00;102703.13;5096103;28;20024;-48
2022/10/19 03:32:00;;;;;;;52.08;24.38;;;;;;;4.72;100.00;102700.69;5097259;28;20460;-47
2022/10/19 03:34:26;;;;;;;56.53;25.30;;;;;;;4.81;100.00;102698.03;5097012;28;20024;-48
2022/10/19 03:36:51;;;;;;;49.35;26.05;;;;;;;4.84;100.00;102703.38;5096084;28;20032;-48
2022/10/19 03:39:17;;;;;;;57.95;27.05;;;;;;;4.88;100.00;102698.66;5097029;28;20024;-48
2022/10/19 03:41:42;;;;;;;55.53;24.10;;;;;;;4.77;100.00;102699.41;5096445;28;20044;-48
2022/10/19 03:44:09;;;;;;;49.05;26.08;;;;;;;4.78;100.00;102702.09;5096046;28;20028;-45
2022/10/19 03:46:35;;;;;;;52.05;23.65;;;;;;;4.68;100.00;102698.66;5096880;28;20081;-47
2022/10/19 03:49:01;;;;;;;48.33;24.58;;;;;;;4.70;100.00;102707.31;5097012;28;20030;-48
2022/10/19 03:51:28;;;;;;;44.85;24.70;;;;;;;4.74;100.00;102710.28;5095977;28;20016;-48
2022/10/19 03:53:57;;;;;;;48.58;24.80;;;;;;;4.76;100.00;102705.28;5096574;28;20439;-49
2022/10/19 03:56:24;;;;;;;50.42;24.90;;;;;;;4.72;100.00;102718.56;5095785;28;20047;-48
2022/10/19 03:58:51;;;;;;;46.55;23.83;;;;;;;4.65;100.00;102712.06;5096240;28;20114;-48
2022/10/19 04:01:23;;;;;;;44.17;22.90;;;;;;;4.63;100.00;102711.03;5096701;28;20042;-49
2022/10/19 04:03:53;;;;;;;43.38;21.80;;;;;;;4.58;100.00;102709.75;5095587;28;20312;-48
2022/10/19 04:06:22;;;;;;;49.65;24.15;;;;;;;4.65;100.00;102713.72;5096595;28;20028;-48
2022/10/19 04:08:48;;;;;;;42.42;23.42;;;;;;;4.60;100.00;102715.91;5096082;28;20103;-49
2022/10/19 04:11:16;;;;;;;48.88;24.17;;;;;;;4.61;100.00;102718.56;5095785;28;20063;-46
2022/10/19 04:13:42;;;;;;;52.13;28.38;;;;;;;4.74;100.00;102707.72;5096222;28;20047;-47
2022/10/19 04:16:08;;;;;;;57.00;26.45;;;;;;;4.69;100.00;102718.34;5096415;28;20397;-48
2022/10/19 04:18:34;;;;;;;55.25;27.27;;;;;;;4.70;100.00;102712.44;5095206;28;20043;-45
2022/10/19 04:21:02;;;;;;;51.17;25.60;;;;;;;4.64;100.00;102714.50;5096169;28;20463;-46
2022/10/19 04:23:30;;;;;;;43.33;22.60;;;;;;;4.53;100.00;102713.56;5095955;28;20028;-47
2022/10/19 04:26:06;;;;;;;38.80;21.42;;;;;;;4.51;100.00;102710.03;5095492;28;20047;-48
2022/10/19 04:28:33;;;;;;;36.05;19.63;;;;;;;4.34;100.00;102706.94;5095865;28;20051;-48
2022/10/19 04:31:03;;;;;;;38.65;20.50;;;;;;;4.33;100.00;102706.81;5096035;28;20016;-49
2022/10/19 04:33:28;;;;;;;44.92;21.30;;;;;;;4.38;100.00;102700.44;5095208;28;20030;-48
2022/10/19 04:36:01;;;;;;;43.17;23.88;;;;;;;4.42;100.00;102702.47;5095594;28;20382;-46
2022/10/19 04:38:28;;;;;;;45.13;23.42;;;;;;;4.45;100.00;102700.16;5094990;28;20467;-48
2022/10/19 04:40:53;;;;;;;47.83;25.88;;;;;;;4.40;100.00;102701.44;5095743;28;20102;-48
2022/10/19 04:43:19;;;;;;;54.40;28.67;;;;;;;4.50;100.00;102701.44;5095478;28;20440;-48
2022/10/19 04:45:44;;;;;;;40.95;24.27;;;;;;;4.33;100.00;102706.81;5094552;28;20596;-47
2022/10/19 04:48:09;;;;;;;42.17;22.98;;;;;;;4.23;100.00;102700.88;5095658;28;20036;-48
2022/10/19 04:50:34;;;;;;;38.55;20.85;;;;;;;4.25;100.00;102696.81;5095228;28;20034;-48
2022/10/19 04:53:00;;;;;;;36.15;20.45;;;;;;;4.25;100.00;102695.94;5094967;28;20077;-47
2022/10/19 04:55:25;;;;;;;55.50;25.55;;;;;;;4.35;100.00;102701.06;5095549;28;20028;-47
2022/10/19 04:57:50;;;;;;;55.03;32.30;;;;;;;4.41;100.00;102703.22;5095439;28;20088;-48
2022/10/19 05:00:16;;;;;;;69.90;33.30;;;;;;;4.50;100.00;102698.00;5094624;28;20033;-49
2022/10/19 05:02:45;;;;;;;54.58;30.13;;;;;;;4.35;100.00;102697.59;5095161;28;20479;-47
2022/10/19 05:05:13;;;;;;;51.30;27.88;;;;;;;4.32;100.00;102700.78;5095225;28;20028;-48
2022/10/19 05:07:39;;;;;;;56.88;30.80;;;;;;;4.38;100.00;102697.88;5094490;28;20035;-48
2022/10/19 05:10:05;;;;;;;61.80;27.85;;;;;;;4.26;100.00;102698.63;5095323;28;20012;-48
2022/10/19 05:12:30;;;;;;;56.38;26.08;;;;;;;4.21;100.00;102702.44;5095074;28;20032;-47
2022/10/19 05:14:56;;;;;;;46.65;25.15;;;;;;;4.27;100.00;102700.41;5094446;28;20026;-48
2022/10/19 05:17:21;;;;;;;57.70;25.67;;;;;;;4.22;100.00;102703.31;5095057;28;20028;-48
2022/10/19 05:19:46;;;;;;;56.90;27.40;;;;;;;4.34;100.00;102708.56;5094678;28;20055;-49
2022/10/19 05:22:11;;;;;;;60.22;28.20;;;;;;;4.34;100.00;102691.63;5094410;28;20023;-45
2022/10/19 05:24:37;;;;;;;68.43;33.35;;;;;;;4.38;100.00;102687.66;5094579;28;20067;-48
2022/10/19 05:27:02;;;;;;;72.32;34.80;;;;;;;4.27;100.00;102691.84;5095061;28;20085;-47
2022/10/19 05:29:27;;;;;;;60.38;31.85;;;;;;;4.31;100.00;102691.34;5094182;28;20030;-49
2022/10/19 05:31:53;;;;;;;56.42;33.38;;;;;;;4.28;100.00;102686.84;5094618;28;20028;-49
2022/10/19 05:34:18;;;;;;;72.70;36.38;;;;;;;4.38;100.00;102680.00;5094663;28;20119;-48
2022/10/19 05:36:43;;;;;;;73.30;36.97;;;;;;;4.41;100.00;102680.25;5093838;28;20032;-47
2022/10/19 05:39:14;;;;;;;68.80;35.35;;;;;;;4.42;100.00;102675.28;5094846;28;20386;-46
2022/10/19 05:41:42;;;;;;;61.15;31.25;;;;;;;4.40;100.00;102675.91;5094261;28;20044;-50
2022/10/19 05:44:12;;;;;;;56.28;30.38;;;;;;;4.34;100.00;102680.47;5094458;28;20119;-46
2022/10/19 05:46:38;;;;;;;52.92;28.25;;;;;;;4.23;100.00;102677.91;5093792;28;20035;-49
2022/10/19 05:49:03;;;;;;;57.67;31.15;;;;;;;4.33;100.00;102671.94;5093669;28;20032;-49
2022/10/19 05:51:28;;;;;;;65.00;29.40;;;;;;;4.21;100.00;102671.81;5094239;28;20526;-48
2022/10/19 05:53:55;;;;;;;58.65;27.17;;;;;;;4.15;100.00;102678.94;5094079;28;20107;-47
2022/10/19 05:56:23;;;;;;;60.03;27.67;;;;;;;4.12;100.00;102669.38;5093529;28;20027;-49
2022/10/19 05:58:49;;;;;;;60.22;30.42;;;;;;;4.16;100.00;102683.28;5093914;28;20425;-49
2022/10/19 06:01:17;;;;;;;66.70;30.65;;;;;;;4.19;100.00;102677.56;5094073;28;20020;-47
2022/10/19 06:03:43;;;;;;;83.47;36.67;;;;;;;4.35;100.00;102674.63;5093253;28;20082;-48
2022/10/19 06:06:08;;;;;;;72.68;35.25;;;;;;;4.35;100.00;102682.28;5094023;28;20431;-48
2022/10/19 06:08:34;;;;;;;72.22;33.95;;;;;;;4.34;100.00;102680.47;5093950;28;20032;-49
2022/10/19 06:11:17;;;;;;;63.70;32.42;;;;;;;4.25;100.00;102686.63;5093260;28;20026;-49
2022/10/19 06:13:45;;;;;;;69.72;34.03;;;;;;;4.31;100.00;102675.13;5093578;28;20028;-48
2022/10/19 06:16:11;;;;;;;;;;;;;;;4.33;100.00;102671.06;5094553;28;20028;-48
2022/10/19 06:18:37;;;;;;;73.97;35.15;;;;;;;4.39;100.00;102663.91;5092971;28;19934;-47
2022/10/19 06:21:05;;;;;;;71.40;36.25;;;;;;;4.41;100.00;102662.38;5093932;28;20475;-48
2022/10/19 06:23:31;;;;;;;;;;;;;;;4.44;100.00;102658.44;5093934;28;20036;-47
2022/10/19 06:25:57;;;;;;;75.75;35.95;;;;;;;4.46;100.00;102656.00;5092986;28;19912;-48
2022/10/19 06:28:22;;;;;;;79.50;37.75;;;;;;;4.55;100.00;102656.75;5093541;28;20038;-48
2022/10/19 06:30:47;;;;;;;72.43;39.53;;;;;;;4.57;100.00;102656.88;5093328;28;20468;-48
2022/10/19 06:33:12;;;;;;;75.78;38.55;;;;;;;4.58;100.00;102657.03;5092788;28;20028;-48
2022/10/19 06:35:41;;;;;;;79.88;45.22;;;;;;;4.73;100.00;102657.41;5093555;28;20036;-49
2022/10/19 06:38:06;;;;;;;100.10;50.08;;;;;;;4.76;100.00;102651.66;5092790;28;20103;-49
2022/10/19 06:40:31;;;;;;;100.07;49.20;;;;;;;4.88;100.00;102651.75;5093358;28;20115;-49
2022/10/19 06:42:57;;;;;;;85.45;46.40;;;;;;;4.90;100.00;102661.31;5093100;28;20044;-47
2022/10/19 06:45:23;;;;;;;84.07;42.95;;;;;;;4.95;100.00;102662.59;5092763;28;20034;-47
2022/10/19 06:47:48;;;;;;;82.57;43.00;;;;;;;4.99;100.00;102665.44;5093289;28;20052;-49
2022/10/19 06:50:13;;;;;;;82.07;41.70;;;;;;;5.07;100.00;102672.03;5093388;28;20035;-47
2022/10/19 06:52:39;;;;;;;68.50;38.33;;;;;;;5.00;100.00;102674.88;5092267;28;20128;-45
2022/10/19 06:55:05;;;;;;;94.10;43.95;;;;;;;5.14;100.00;102682.00;5093249;28;20031;-48
2022/10/19 06:57:30;;;;;;;81.97;45.00;;;;;;;5.20;100.00;102674.84;5092228;28;20387;-45
2022/10/19 06:59:56;;;;;;;81.68;42.38;;;;;;;5.21;100.00;102674.03;5092553;28;20048;-47
2022/10/19 07:02:21;;;;;;;73.57;40.30;;;;;;;5.19;100.00;102680.72;5093343;28;20495;-47
2022/10/19 07:04:46;;;;;;;78.00;41.90;;;;;;;5.35;100.00;102671.72;5092999;28;20035;-48
2022/10/19 07:07:12;;;;;;;77.80;41.13;;;;;;;5.40;100.00;102670.44;5092297;28;20035;-49
2022/10/19 07:09:37;;;;;;;76.35;41.33;;;;;;;5.45;100.00;102671.69;5092922;28;20375;-49
2022/10/19 07:12:03;;;;;;;77.00;44.28;;;;;;;5.55;100.00;102671.66;5093029;28;20527;-48
2022/10/19 07:14:28;;;;;;;83.60;43.88;;;;;;;5.70;100.00;102663.41;5092439;28;20034;-49
2022/10/19 07:16:54;;;;;;;82.82;43.58;;;;;;;5.73;100.00;102663.63;5092889;28;20024;-48
2022/10/19 07:19:20;;;;;;;81.85;42.38;;;;;;;5.81;100.00;102672.81;5093132;28;20027;-48
2022/10/19 07:21:50;;;;;;;79.15;43.85;;;;;;;5.94;100.00;102675.56;5091956;28;20077;-49
2022/10/19 07:24:15;;;;;;;88.95;44.95;;;;;;;6.10;100.00;102674.22;5092865;28;20032;-48
2022/10/19 07:26:40;;;;;;;82.78;42.45;;;;;;;6.09;100.00;102685.22;5092547;28;20096;-49
2022/10/19 07:29:06;;;;;;;74.35;41.00;;;;;;;6.15;100.00;102683.16;5092272;28;20028;-49
2022/10/19 07:31:31;;;;;;;75.80;42.88;;;;;;;6.32;100.00;102670.75;5092810;28;20052;-49
2022/10/19 07:34:01;;;;;;;75.43;42.58;;;;;;;6.37;100.00;102674.56;5093316;28;20028;-49
2022/10/19 07:36:29;;;;;;;71.20;40.15;;;;;;;6.50;100.00;102672.13;5092083;28;20035;-47
2022/10/19 07:38:54;;;;;;;68.40;38.95;;;;;;;6.50;100.00;102677.25;5092613;28;20028;-48
2022/10/19 07:41:22;;;;;;;62.67;36.22;;;;;;;6.58;100.00;102681.31;5091917;28;20073;-48
2022/10/19 07:43:49;;;;;;;58.75;34.70;;;;;;;6.65;100.00;102681.75;5092622;28;20031;-48
2022/10/19 07:46:20;;;;;;;62.08;35.05;;;;;;;6.71;100.00;102677.09;5092840;28;20020;-47
2022/10/19 07:48:45;;;;;;;57.45;34.65;;;;;;;6.79;100.00;102675.09;5091995;28;20027;-48
2022/10/19 07:51:13;;;;;;;56.10;33.47;;;;;;;6.94;100.00;102670.22;5092794;28;20106;-48
2022/10/19 07:53:38;;;;;;;55.60;31.83;;;;;;;7.03;100.00;102655.50;5092563;28;20028;-48
2022/10/19 07:56:06;;;;;;;54.60;32.05;;;;;;;7.15;100.00;102651.25;5091869;28;20486;-48
2022/10/19 07:58:33;;;;;;;52.72;33.67;;;;;;;7.25;100.00;102652.84;5092364;28;20116;-48
2022/10/19 08:01:00;;;;;;;52.10;35.80;;;;;;;7.33;100.00;102655.94;5092682;28;20051;-49
2022/10/19 08:03:25;;;;;;;48.85;29.67;;;;;;;7.46;100.00;102642.31;5091819;28;20032;-47
2022/10/19 08:05:51;;;;;;;45.67;28.50;;;;;;;7.60;100.00;102645.88;5092235;28;20020;-48
2022/10/19 08:08:16;;;;;;;47.15;28.88;;;;;;;7.71;100.00;102650.09;5092545;28;20024;-48
2022/10/19 08:10:41;;;;;;;43.58;26.60;;;;;;;7.83;100.00;102640.69;5094546;28;20045;-48
2022/10/19 08:13:07;;;;;;;45.38;26.40;;;;;;;7.97;100.00;102636.50;5096405;28;20018;-49
2022/10/19 08:15:32;;;;;;;46.30;25.90;;;;;;;8.11;100.00;102640.03;5096045;28;20028;-48
2022/10/19 08:17:58;;;;;;;40.65;22.70;;;;;;;8.40;100.00;102643.66;5095544;28;20031;-47
2022/10/19 08:20:24;;;;;;;40.00;22.20;;;;;;;8.50;100.00;102651.25;5096402;28;20032;-47
2022/10/19 08:22:49;;;;;;;40.78;23.05;;;;;;;8.68;100.00;102651.59;5095832;28;20479;-49
2022/10/19 08:25:14;;;;;;;36.67;22.17;;;;;;;8.64;100.00;102661.56;5095349;28;20038;-48
2022/10/19 08:27:39;;;;;;;40.08;22.15;;;;;;;8.88;100.00;102652.00;5095829;28;20456;-46
2022/10/19 08:30:06;;;;;;;50.70;23.30;;;;;;;9.12;100.00;102652.72;5096110;28;20020;-48
2022/10/19 08:32:31;;;;;;;32.83;21.23;;;;;;;9.33;100.00;102640.31;5095086;28;20016;-49
2022/10/19 08:34:56;;;;;;;43.85;21.25;;;;;;;9.34;100.00;102633.50;5095926;28;20024;-49
2022/10/19 08:37:21;;;;;;;37.08;19.25;;;;;;;9.33;100.00;102627.44;5095820;28;20027;-48
2022/10/19 08:39:47;;;;;;;39.28;16.77;;;;;;;9.37;100.00;102625.97;5094711;28;20031;-48
2022/10/19 08:42:18;;;;;;;36.22;16.90;;;;;;;9.52;100.00;102619.22;5095798;28;20477;-49
2022/10/19 08:45:18;;;;;;;36.70;17.58;;;;;;;9.59;100.00;102617.91;5094617;28;20502;-48
2022/10/19 08:48:04;;;;;;;28.45;14.80;;;;;;;9.83;100.00;102613.38;5095415;28;20468;-49
2022/10/19 08:50:36;;;;;;;32.03;16.00;;;;;;;9.88;100.00;102617.13;5095543;28;20512;-49
2022/10/19 08:53:05;;;;;;;30.35;14.38;;;;;;;10.12;100.00;102598.81;5094944;28;20031;-45
2022/10/19 08:55:49;;;;;;;27.13;13.52;;;;;;;10.04;100.00;102606.09;5095249;28;20092;-47
2022/10/19 08:58:39;;;;;;;34.70;15.80;;;;;;;10.34;100.00;102605.22;5095428;28;20421;-48
2022/10/19 09:01:29;;;;;;;36.42;17.50;;;;;;;10.55;100.00;102605.63;5095533;28;20031;-47
2022/10/19 09:04:03;;;;;;;29.58;16.02;;;;;;;10.80;100.00;102602.75;5095271;28;20077;-48
2022/10/19 09:06:40;;;;;;;24.13;12.15;;;;;;;10.86;100.00;102605.69;5094561;28;20032;-50
2022/10/19 09:09:08;;;;;;;24.60;11.00;;;;;;;11.14;100.00;102599.50;5095206;28;20420;-49
2022/10/19 09:11:41;;;;;;;28.67;12.63;;;;;;;11.39;100.00;102598.28;5095159;28;20278;-49
2022/10/19 09:14:30;;;;;;;32.50;14.48;;;;;;;11.69;100.00;102590.38;5094542;28;20055;-49
2022/10/19 09:17:02;;;;;;;27.92;12.50;;;;;;;11.92;100.00;102588.13;5095130;28;20356;-46
2022/10/19 09:19:30;;;;;;;25.92;9.80;;;;;;;12.17;100.00;102591.22;5095166;28;20102;-48
2022/10/19 09:22:00;;;;;;;23.75;12.45;;;;;;;12.57;100.00;102597.47;5093526;28;20034;-49
2022/10/19 09:24:30;;;;;;;23.98;8.75;;;;;;;12.81;97.50;102591.75;5094794;28;20074;-50
2022/10/19 09:27:00;;;;;;;20.38;8.75;;;;;;;13.10;100.00;102595.69;5094202;28;20069;-49
2022/10/19 09:29:37;;;;;;;20.73;7.65;;;;;;;13.24;100.00;102603.25;5094812;28;20050;-49
2022/10/19 09:32:10;;;;;;;20.10;8.13;;;;;;;13.33;93.70;102611.44;5095097;28;20024;-47
2022/10/19 09:34:40;;;;;;;20.20;8.60;;;;;;;13.60;89.14;102606.66;5093795;28;20031;-48
2022/10/19 09:37:05;;;;;;;14.98;6.25;;;;;;;14.01;89.44;102604.16;5094741;28;20534;-47
2022/10/19 09:39:31;;;;;;;21.10;6.95;;;;;;;13.88;82.89;102604.41;5094481;28;20055;-46
2022/10/19 09:42:15;;;;;;;20.27;6.20;;;;;;;14.00;87.46;102605.84;5093713;28;20094;-47
2022/10/19 09:44:41;;;;;;;19.33;6.22;;;;;;;13.74;79.52;102596.94;5094479;28;20106;-50
2022/10/19 09:47:31;;;;;;;19.10;6.10;;;;;;;13.93;85.69;102601.22;5094655;28;20058;-49
2022/10/19 09:50:16;;;;;;;14.00;5.57;;;;;;;13.88;86.43;102594.06;5093616;28;20459;-49
2022/10/19 09:52:44;;;;;;;18.05;5.63;;;;;;;13.75;81.72;102588.34;5094114;28;20040;-49
2022/10/19 09:55:12;;;;;;;;;;;;;;;14.21;90.56;102588.56;5094162;28;20024;-49
2022/10/19 09:57:57;;;;;;;20.30;5.78;;;;;;;14.48;83.95;102584.53;5094263;28;19912;-48
2022/10/19 10:00:30;;;;;;;13.23;5.00;;;;;;;14.39;77.29;102588.47;5094374;28;20110;-50
2022/10/19 10:02:56;;;;;;;19.45;5.40;;;;;;;14.62;78.26;102584.22;5093399;28;20028;-49
2022/10/19 10:05:33;;;;;;;12.55;4.93;;;;;;;14.64;76.67;102574.81;5094267;28;20447;-48
2022/10/19 10:07:59;;;;;;;19.67;5.65;;;;;;;15.07;76.65;102568.72;5094074;28;20528;-48
2022/10/19 10:10:29;;;;;;;17.77;5.70;;;;;;;15.37;74.01;102560.31;5093373;28;20024;-49
2022/10/19 10:12:57;;;;;;;17.27;5.40;;;;;;;15.50;72.55;102566.00;5093824;28;20039;-49
2022/10/19 10:15:26;;;;;;;23.55;5.20;;;;;;;15.50;70.18;102556.47;5093902;28;20036;-47
2022/10/19 10:17:54;;;;;;;20.40;5.30;;;;;;;15.80;70.18;102548.91;5093054;28;20020;-50
2022/10/19 10:20:27;;;;;;;16.83;5.20;;;;;;;15.72;68.58;102554.66;5094087;28;20069;-48
2022/10/19 10:22:56;;;;;;;21.58;6.40;;;;;;;15.60;68.26;102557.69;5093849;28;20107;-48
2022/10/19 10:25:25;;;;;;;16.70;5.63;;;;;;;15.98;68.27;102565.13;5092918;28;20035;-50
2022/10/19 10:28:02;;;;;;;19.83;5.65;;;;;;;16.14;68.73;102562.22;5093520;28;20052;-50
2022/10/19 10:30:34;;;;;;;24.83;5.72;;;;;;;16.03;67.30;102559.22;5092801;28;20025;-49
2022/10/19 10:33:00;;;;;;;17.52;5.20;;;;;;;15.87;66.96;102563.03;5093686;28;20031;-49
2022/10/19 10:35:33;;;;;;;22.77;5.65;;;;;;;15.82;66.91;102561.09;5093714;28;20036;-48
2022/10/19 10:38:06;;;;;;;21.60;5.22;;;;;;;16.08;67.49;102556.81;5092898;28;20024;-49
2022/10/19 10:40:32;;;;;;;18.05;5.38;;;;;;;16.41;64.33;102546.63;5093125;28;20024;-50
2022/10/19 10:43:20;;;;;;;21.00;5.20;;;;;;;16.40;68.67;102546.59;5093372;28;20039;-49
2022/10/19 10:45:48;;;;;;;21.13;4.78;;;;;;;16.62;65.94;102545.56;5092495;28;20032;-50
2022/10/19 10:48:13;;;;;;;15.45;4.60;;;;;;;16.89;63.42;102537.72;5093496;28;20034;-49
2022/10/19 10:50:38;;;;;;;19.20;4.63;;;;;;;17.08;62.24;102531.38;5093224;28;20039;-49
2022/10/19 10:53:22;;;;;;;21.67;5.00;;;;;;;16.80;62.43;102540.06;5092540;28;20417;-49
2022/10/19 10:55:54;;;;;;;24.40;5.40;;;;;;;16.83;64.21;102539.25;5074703;28;20043;-47
2022/10/19 10:58:40;;;;;;;19.85;5.30;;;;;;;16.70;64.92;102533.66;5092465;28;20352;-49
2022/10/19 11:01:20;;;;;;;18.58;5.50;;;;;;;16.23;60.86;102530.41;5093309;28;20051;-48
2022/10/19 11:03:51;;;;;;;19.25;5.78;;;;;;;15.99;61.34;102520.09;5093038;28;20145;-49
2022/10/19 11:06:19;;;;;;;21.70;6.05;;;;;;;15.71;62.85;102519.09;5092433;28;20026;-49
2022/10/19 11:09:03;;;;;;;16.15;6.45;;;;;;;15.70;63.38;102509.50;5092879;28;20028;-49
2022/10/19 11:11:48;;;;;;;27.50;6.70;;;;;;;16.13;65.29;102513.63;5093336;28;20123;-48
2022/10/19 11:14:31;;;;;;;19.55;6.35;;;;;;;16.50;64.15;102509.63;5092492;28;20032;-49
2022/10/19 11:17:02;;;;;;;24.85;7.13;;;;;;;16.86;62.54;102502.88;5093173;28;20036;-49
2022/10/19 11:19:34;;;;;;;26.77;7.13;;;;;;;16.91;61.32;102501.34;5092361;28;20103;-49
2022/10/19 11:22:23;;;;;;;19.15;6.47;;;;;;;17.53;62.82;102492.66;5092966;28;20024;-49